Latest Observation

42 Stations

15 Minute Data | America/Los_Angeles
as of 5/9/26 3:24 AM PDT
Station Date Time Temp (°F) RH (%) Dew Pt (°F) Wind Spd (mph) Wind Dir (°) Wind Gust (mph) Latest Rain (In) Daily Rain (In) Daily Min Temp (°F) Daily Max Temp (°F) Daily Max Wind (mph)
Elk Mt. Farm 5/9/26 0315 47.6   3.5 - - - - - - - 47.3   3.2 50.0   1.2 -
Upper Lake 5/9/26 0315 47.3   2.3 98   1 46.7   2.5 0.1 NW | 319 0.9   0.1 0.00 0.00 46.8   2.1 49.8   1.8 1.6   0.7
Scotts Valley 5/9/26 0315 43.1   4.8 97   1 42.4   4.9 0.1 SSE | 149 0.9   0.9 0.00 0.00 43.0   4.9 45.2   3.0 1.1   0.2
Scotts Valley-South (Bella Vista) 5/9/26 0315 46.9   2.0 88   11 43.7   5.4 0.2 SW | 216 1.3   2.3 0.00 0.00 46.9   2.2 50.2   2.9 3.9   0.2
Kelseyville 5/9/26 0315 47.7   3.3 87   7 43.9   1.2 0.3 W | 266 1.5   2.0 0.00 0.00 47.5   3.2 50.6   0.9 3.1   0.4
Kelseyville Remote 5/9/26 0315 49.2   4.2 77   8 42.4   1.5 - - - 0.00 0.00 48.2   3.9 50.7   0.5 -
Kelseyville (Clark Drive) 5/9/26 0315 48.9   4.9 - - - - - 0.00 0.00 47.7   4.0 50.3   2.5 -
Kelsey Bench (Oaklea) 5/9/26 0315 52.7   4.7 72   17 44.1   0.9 0.0 N | 0 0.0   0.0 0.00 0.00 51.1   3.6 53.9   0.7 0.0   5.7
Smith Lane (Kelseyville-South) 5/9/26 0215 47.1   2.1 92   2 44.9   1.4 0.4 SSE | 158 2.1   2.1 0.00 0.00 47.1   2.1 49.5   2.0 2.6   0.0
Bell Hill-West 5/9/26 0315 48.2   4.4 100   0 48.2   4.4 2.7 SSW | 196 3.4   0.3 0.00 0.00 48.0   4.4 50.7   1.8 4.1   0.0
High Valley Ridgeline (Brassfield) 5/9/26 0315 62.5   3.2 51   1 44.4   2.4 3.7 W | 270 4.3   2.5 0.00 0.00 62.2   4.6 65.0   5.1 6.9   5.4
Wight Way (Adobe Creek) 5/9/26 0300 46.1   4.9 92   2 43.8   4.2 1.5 SE | 140 2.0   1.0 0.00 0.00 45.8   4.7 48.2   0.0 2.8   0.3
Ridgeline Top (Brassfield) 5/9/26 0315 63.2   5.1 - - - - - - - 61.4   5.6 65.4   6.2 -
Ridgeline Low (Brassfield) 5/9/26 0315 60.1   2.1 - - - - - - - 57.1   2.1 63.2   3.0 -
Long Valley (Shannon) 5/9/26 0245 49.6   2.5 97   3 48.9   3.2 0.1 NE | 55 1.0   0.5 0.00 0.00 48.9   1.7 53.0   3.1 1.4   1.0
High Valley Winery 5/9/26 0315 48.1   3.0 91   0 45.7   3.1 0.3 ENE | 59 1.7   0.8 0.00 0.00 48.0   3.2 51.0   2.1 2.7   2.5
Round Mtn Rd. 5/9/26 0315 51.5   1.1 - - - - - - - 51.2   0.8 55.8   0.1 -
Circle O 5/9/26 0315 50.5   3.2 - - - - - - - 50.2   3.4 53.4   2.4 -
Robertsbridge Vineyards 5/9/26 0315 47.8   4.6 88   3 44.6   3.6 - - - - - 46.8   4.1 49.3   2.6 -
Urgency Vineyard 5/9/26 0315 48.3   4.9 87   5 44.8   6.4 0.6 SSW | 192 2.4   0.7 0.00 0.00 48.3   4.9 60.2   6.3 5.3   0.1
Red Hills (Beckstoffer) 5/9/26 0315 45.0   5.8 92   1 42.6   6.2 - - - 0.00 0.00 45.0   5.8 60.5   4.8 -
Winters (Shannon) 5/9/26 0315 44.9   6.7 91   0 42.4   6.6 0.0 N | 0 0.0   0.8 0.00 0.00 44.8   6.6 50.8   3.8 2.0   0.4
Secret Pond (Shannon) 5/9/26 0315 50.8   6.9 75   4 43.4   5.4 0.1 SSE | 148 1.4   0.4 0.00 0.00 50.6   6.7 58.8   2.9 4.7   0.0
Rolling Knolls (Shannon) 5/9/26 0315 48.2   4.3 87   0 44.7   4.1 0.6 WSW | 248 2.3   1.0 0.00 0.00 48.2   4.5 51.0   1.7 4.4   1.0
Lower Lake 5/9/26 0315 54.6   6.1 72   9 45.8   2.9 2.1 WSW | 254 4.2   0.2 0.00 0.00 54.4   5.9 58.9   2.8 5.4   0.8
Adamson Ranch 5/9/26 0315 48.2   3.2 95   2 46.7   2.8 0.1 WNW | 285 1.1   0.9 0.00 0.00 48.2   3.7 50.6   1.1 1.1   0.9
Middletown (Diamond D) 5/9/26 0315 52.1   2.4 91   4 49.5   1.3 1.7 SE | 137 5.7   3.0 0.00 0.00 51.8   2.4 55.4   0.2 5.7   2.0
Middletown-West (Domaine Helena) 5/9/26 0315 46.9   0.6 97   2 46.2   1.2 1.4 W | 273 3.0   1.0 0.00 0.00 45.7   1.6 51.5   0.5 3.0   0.2
Middletown-South 5/9/26 0315 50.8   1.6 95   3 49.4   0.8 1.4 SSW | 212 2.2   0.7 0.00 0.00 50.4   1.8 53.2   0.2 2.6   0.1
Jim Davis (Langtry) 5/9/26 0315 56.4   1.9 85   8 52.1   0.6 4.1 WSW | 252 7.2   3.8 0.00 0.00 56.0   2.0 60.4   1.1 7.2   3.4
Napa Valley Basin 5/9/26 0315 49.7   0.4 97   1 48.8   0.1 0.3 SW | 220 1.4   0.7 0.00 0.00 49.4   1.2 51.2   0.6 2.6   1.0
Lower Bohn 5/9/26 0315 46.5   0.6 99   0 46.3   0.7 0.0 ESE | 112 1.0   0.1 0.00 0.00 46.0   0.0 50.2   0.0 2.0   0.4
Upper Bohn-North 5/9/26 0315 56.4   3.8 94   6 54.6   2.0 0.4 NE | 51 1.9   0.1 0.00 0.00 55.5   3.2 57.4   1.4 2.4   0.4
Snell Peak Blk#9 5/9/26 0315 58.7   2.7 77   23 51.7   4.3 1.9 W | 278 2.6   1.8 0.00 0.00 58.0   2.9 62.1   4.2 3.1   1.2
Coyote Lake West 5/9/26 0315 57.0   2.7 84   11 52.2   0.8 0.7 NNE | 14 2.3   1.2 0.00 0.00 55.7   2.2 60.7   4.3 2.3   1.2
Coyote Lake Northeast 5/9/26 0315 57.8   2.4 83   12 52.8   1.3 - - - - - 56.5   1.1 58.8   0.7 -
Coyote Lake East 5/9/26 0315 51.4   1.6 97   0 50.6   1.5 - - - - - 51.2   1.4 53.4   1.4 -
Morgan Valley 5/9/26 0315 62.7   3.6 67   13 51.7   9.4 4.7 WNW | 294 7.7   1.6 0.00 0.00 62.3   4.1 64.2   2.2 10.1   1.4
Mine Pit North 5/9/26 0315 58.6   3.0 67   10 47.8   0.9 1.5 NNE | 15 3.4   0.7 - - 57.0   2.0 59.7   0.6 4.8   0.7
Mine Pit South 5/9/26 0315 61.8   3.6 57   18 46.6   3.9 2.0 NNW | 331 4.5   0.7 0.00 0.00 60.0   2.3 63.4   0.1 12.3   8.6
Cow Mountain 5/9/26 0315 67.5   7.1 - - 1.0 ENE | 77 1.8   11.4 0.00 0.00 64.1   4.3 68.9   5.6 11.6   4.4
Ukiah-SE (Ruddick) 5/9/26 0315 48.3   3.4 87   2 44.6   2.8 0.7 NNW | 346 2.4   2.4 0.00 0.00 47.9   3.2 51.0   0.5 2.4   0.6
Max     67.5 100 54.6 4.7 - 7.7 0.00 0.00 64.1 68.9 12.3
Avg     51.9 86 46.8 1.1 - 2.5 0.00 - - - -
Min     43.1 51 42.4 0.0 - 0.0 0.00 0.00 43.0 45.2 0.0